Enetai, Washington
Current Conditions -  °F | °C
As of 12:15 PM on Sunday 21 Dec 2014 (Local Time) from KPWT Reporting Station
Clear Clear  
Wind Chill: 54°   Ceiling: Unl
Heat Index: 54°   Visibility: 10mi
Dew Point: 50°   Wind: 14mph
Humidity: 88%   Direction: 210°SSW
Pressure: 29.97"   Gusts: 22mph
Location:  47.5691°N, 122.818°W
Report Text: KPWT 212015Z AUTO 21012G19KT 10SM CLR 12/10 A2997 RMK AO1
Loading
Personal Weather Stations






























Interactive Weather Map New forecast layout! Learn more

10-Day Weather Forecast

Advertisements
Track Severe Weather on mobile